sensor_id;sensor_type;location;lat;lon;timestamp;pressure;altitude;pressure_sealevel;temperature;humidity
42621;BME280;28252;53.336;-6.298;2023-11-19T00:00:17;99362.22;;;19.74;100.00
42621;BME280;28252;53.336;-6.298;2023-11-19T00:00:53;99357.84;;;19.73;100.00
42621;BME280;28252;53.336;-6.298;2023-11-19T00:01:29;99357.00;;;19.73;100.00
42621;BME280;28252;53.336;-6.298;2023-11-19T00:02:03;99356.16;;;19.72;100.00
42621;BME280;28252;53.336;-6.298;2023-11-19T00:02:37;99360.75;;;19.72;100.00
42621;BME280;28252;53.336;-6.298;2023-11-19T00:03:10;99355.34;;;19.72;100.00
42621;BME280;28252;53.336;-6.298;2023-11-19T00:03:49;99346.59;;;19.70;100.00
42621;BME280;28252;53.336;-6.298;2023-11-19T00:04:23;99352.84;;;19.70;100.00
42621;BME280;28252;53.336;-6.298;2023-11-19T00:04:54;99358.44;;;19.69;100.00
42621;BME280;28252;53.336;-6.298;2023-11-19T00:05:25;99358.44;;;19.69;100.00
42621;BME280;28252;53.336;-6.298;2023-11-19T00:06:03;99349.50;;;19.68;100.00
42621;BME280;28252;53.336;-6.298;2023-11-19T00:06:35;99349.50;;;19.68;100.00
42621;BME280;28252;53.336;-6.298;2023-11-19T00:07:13;99349.50;;;19.68;100.00
42621;BME280;28252;53.336;-6.298;2023-11-19T00:07:51;99347.00;;;19.67;100.00
42621;BME280;28252;53.336;-6.298;2023-11-19T00:08:26;99350.53;;;19.67;100.00
42621;BME280;28252;53.336;-6.298;2023-11-19T00:09:41;99347.19;;;19.65;100.00
42621;BME280;28252;53.336;-6.298;2023-11-19T00:10:16;99332.84;;;19.65;100.00
42621;BME280;28252;53.336;-6.298;2023-11-19T00:10:52;99332.03;;;19.64;100.00
42621;BME280;28252;53.336;-6.298;2023-11-19T00:11:27;99336.78;;;19.62;100.00
42621;BME280;28252;53.336;-6.298;2023-11-19T00:12:09;99338.66;;;19.62;100.00
42621;BME280;28252;53.336;-6.298;2023-11-19T00:12:46;99337.00;;;19.60;100.00
42621;BME280;28252;53.336;-6.298;2023-11-19T00:13:19;99341.38;;;19.62;100.00
42621;BME280;28252;53.336;-6.298;2023-11-19T00:13:54;99331.59;;;19.60;100.00
42621;BME280;28252;53.336;-6.298;2023-11-19T00:14:29;99342.78;;;19.57;100.00
42621;BME280;28252;53.336;-6.298;2023-11-19T00:15:03;99328.25;;;19.58;100.00
42621;BME280;28252;53.336;-6.298;2023-11-19T00:15:34;99331.97;;;19.57;100.00
42621;BME280;28252;53.336;-6.298;2023-11-19T00:16:08;99327.41;;;19.58;100.00
42621;BME280;28252;53.336;-6.298;2023-11-19T00:16:42;99326.56;;;19.57;100.00
42621;BME280;28252;53.336;-6.298;2023-11-19T00:17:18;99327.41;;;19.58;100.00
42621;BME280;28252;53.336;-6.298;2023-11-19T00:17:49;99328.44;;;19.57;100.00
42621;BME280;28252;53.336;-6.298;2023-11-19T00:18:20;99328.25;;;19.58;100.00
42621;BME280;28252;53.336;-6.298;2023-11-19T00:18:56;99324.94;;;19.56;100.00
42621;BME280;28252;53.336;-6.298;2023-11-19T00:19:34;99320.56;;;19.55;100.00
42621;BME280;28252;53.336;-6.298;2023-11-19T00:20:08;99323.25;;;19.55;100.00
42621;BME280;28252;53.336;-6.298;2023-11-19T00:20:39;99323.25;;;19.55;100.00
42621;BME280;28252;53.336;-6.298;2023-11-19T00:21:12;99322.44;;;19.55;100.00
42621;BME280;28252;53.336;-6.298;2023-11-19T00:21:48;99322.44;;;19.55;100.00
42621;BME280;28252;53.336;-6.298;2023-11-19T00:22:26;99320.56;;;19.55;100.00
42621;BME280;28252;53.336;-6.298;2023-11-19T00:23:03;99323.25;;;19.55;100.00
42621;BME280;28252;53.336;-6.298;2023-11-19T00:23:37;99331.34;;;19.55;100.00
42621;BME280;28252;53.336;-6.298;2023-11-19T00:24:10;99322.63;;;19.53;100.00
42621;BME280;28252;53.336;-6.298;2023-11-19T00:24:43;99323.44;;;19.54;100.00
42621;BME280;28252;53.336;-6.298;2023-11-19T00:25:20;99331.75;;;19.52;100.00
42621;BME280;28252;53.336;-6.298;2023-11-19T00:25:56;99330.09;;;19.51;100.00
42621;BME280;28252;53.336;-6.298;2023-11-19T00:26:28;99329.25;;;19.51;100.00
42621;BME280;28252;53.336;-6.298;2023-11-19T00:27:05;99341.09;;;19.50;100.00
42621;BME280;28252;53.336;-6.298;2023-11-19T00:27:38;99342.13;;;19.49;100.00
42621;BME280;28252;53.336;-6.298;2023-11-19T00:28:12;99341.28;;;19.48;100.00
42621;BME280;28252;53.336;-6.298;2023-11-19T00:28:45;99344.00;;;19.48;100.00
42621;BME280;28252;53.336;-6.298;2023-11-19T00:29:22;99340.66;;;19.46;100.00
42621;BME280;28252;53.336;-6.298;2023-11-19T00:29:56;99340.66;;;19.46;100.00
42621;BME280;28252;53.336;-6.298;2023-11-19T00:30:29;99343.13;;;19.48;100.00
42621;BME280;28252;53.336;-6.298;2023-11-19T00:31:04;99344.38;;;19.45;100.00
42621;BME280;28252;53.336;-6.298;2023-11-19T00:31:35;99343.56;;;19.45;100.00
42621;BME280;28252;53.336;-6.298;2023-11-19T00:32:08;99340.00;;;19.44;100.00
42621;BME280;28252;53.336;-6.298;2023-11-19T00:32:44;99342.91;;;19.42;100.00
42621;BME280;28252;53.336;-6.298;2023-11-19T00:33:20;99332.09;;;19.42;100.00
42621;BME280;28252;53.336;-6.298;2023-11-19T00:33:57;99343.75;;;19.43;100.00
42621;BME280;28252;53.336;-6.298;2023-11-19T00:34:28;99341.25;;;19.41;100.00
42621;BME280;28252;53.336;-6.298;2023-11-19T00:35:03;99346.84;;;19.40;100.00
42621;BME280;28252;53.336;-6.298;2023-11-19T00:35:35;99341.44;;;19.40;100.00
42621;BME280;28252;53.336;-6.298;2023-11-19T00:36:09;99336.03;;;19.40;100.00
42621;BME280;28252;53.336;-6.298;2023-11-19T00:36:42;99336.03;;;19.40;100.00
42621;BME280;28252;53.336;-6.298;2023-11-19T00:37:18;99343.13;;;19.41;100.00
42621;BME280;28252;53.336;-6.298;2023-11-19T00:37:51;99346.00;;;19.39;100.00
42621;BME280;28252;53.336;-6.298;2023-11-19T00:38:24;99341.44;;;19.40;100.00
42621;BME280;28252;53.336;-6.298;2023-11-19T00:38:58;99338.09;;;19.38;100.00
42621;BME280;28252;53.336;-6.298;2023-11-19T00:39:34;99340.81;;;19.38;100.00
42621;BME280;28252;53.336;-6.298;2023-11-19T00:40:05;99337.25;;;19.37;100.00
42621;BME280;28252;53.336;-6.298;2023-11-19T00:40:46;99337.25;;;19.37;100.00
42621;BME280;28252;53.336;-6.298;2023-11-19T00:41:19;99332.91;;;19.36;100.00
42621;BME280;28252;53.336;-6.298;2023-11-19T00:42:58;99329.38;;;19.36;100.00
42621;BME280;28252;53.336;-6.298;2023-11-19T00:43:36;99344.53;;;19.37;100.00
42621;BME280;28252;53.336;-6.298;2023-11-19T00:44:09;99339.31;;;19.35;100.00
42621;BME280;28252;53.336;-6.298;2023-11-19T00:44:41;99343.91;;;19.35;100.00
42621;BME280;28252;53.336;-6.298;2023-11-19T00:45:19;99344.72;;;19.35;100.00
42621;BME280;28252;53.336;-6.298;2023-11-19T00:45:50;99342.88;;;19.36;100.00
42621;BME280;28252;53.336;-6.298;2023-11-19T00:46:26;99344.91;;;19.34;100.00
42621;BME280;28252;53.336;-6.298;2023-11-19T00:46:58;99342.22;;;19.34;100.00
42621;BME280;28252;53.336;-6.298;2023-11-19T00:47:33;99345.13;;;19.32;100.00
42621;BME280;28252;53.336;-6.298;2023-11-19T00:48:09;99336.00;;;19.33;100.00
42621;BME280;28252;53.336;-6.298;2023-11-19T00:48:42;99338.88;;;19.32;100.00
42621;BME280;28252;53.336;-6.298;2023-11-19T00:49:16;99345.97;;;19.33;100.00
42621;BME280;28252;53.336;-6.298;2023-11-19T00:49:55;99338.06;;;19.31;100.00
42621;BME280;28252;53.336;-6.298;2023-11-19T00:50:26;99338.88;;;19.32;100.00
42621;BME280;28252;53.336;-6.298;2023-11-19T00:51:02;99340.75;;;19.31;100.00
42621;BME280;28252;53.336;-6.298;2023-11-19T00:51:37;99341.78;;;19.30;100.00
42621;BME280;28252;53.336;-6.298;2023-11-19T00:52:12;99338.25;;;19.30;100.00
42621;BME280;28252;53.336;-6.298;2023-11-19T00:52:49;99347.00;;;19.32;100.00
42621;BME280;28252;53.336;-6.298;2023-11-19T00:53:23;99332.22;;;19.28;100.00
42621;BME280;28252;53.336;-6.298;2023-11-19T00:53:58;99338.44;;;19.28;100.00
42621;BME280;28252;53.336;-6.298;2023-11-19T00:54:32;99344.69;;;19.29;100.00
42621;BME280;28252;53.336;-6.298;2023-11-19T00:55:07;99336.78;;;19.27;100.00
42621;BME280;28252;53.336;-6.298;2023-11-19T00:55:45;99348.44;;;19.28;100.00
42621;BME280;28252;53.336;-6.298;2023-11-19T00:56:18;99335.94;;;19.27;100.00
42621;BME280;28252;53.336;-6.298;2023-11-19T00:56:52;99342.38;;;19.26;100.00
42621;BME280;28252;53.336;-6.298;2023-11-19T00:57:24;99344.03;;;19.27;100.00
42621;BME280;28252;53.336;-6.298;2023-11-19T00:57:55;99342.38;;;19.26;100.00
42621;BME280;28252;53.336;-6.298;2023-11-19T00:58:29;99341.53;;;19.25;100.00
42621;BME280;28252;53.336;-6.298;2023-11-19T00:59:05;99335.31;;;19.25;100.00
42621;BME280;28252;53.336;-6.298;2023-11-19T00:59:41;99335.31;;;19.25;100.00
42621;BME280;28252;53.336;-6.298;2023-11-19T01:00:15;99337.19;;;19.24;100.00
42621;BME280;28252;53.336;-6.298;2023-11-19T01:00:49;99332.63;;;19.25;100.00
42621;BME280;28252;53.336;-6.298;2023-11-19T01:01:25;99330.94;;;19.23;100.00
42621;BME280;28252;53.336;-6.298;2023-11-19T01:02:00;99327.41;;;19.23;100.00
42621;BME280;28252;53.336;-6.298;2023-11-19T01:02:41;99330.94;;;19.23;100.00
42621;BME280;28252;53.336;-6.298;2023-11-19T01:03:17;99323.88;;;19.22;100.00
42621;BME280;28252;53.336;-6.298;2023-11-19T01:05:02;99325.53;;;19.23;100.00
42621;BME280;28252;53.336;-6.298;2023-11-19T01:05:36;99323.03;;;19.22;100.00
42621;BME280;28252;53.336;-6.298;2023-11-19T01:06:10;99330.31;;;19.21;100.00
42621;BME280;28252;53.336;-6.298;2023-11-19T01:06:43;99318.88;;;19.19;100.00
42621;BME280;28252;53.336;-6.298;2023-11-19T01:07:17;99319.50;;;19.21;100.00
42621;BME280;28252;53.336;-6.298;2023-11-19T01:07:50;99317.00;;;19.20;100.00
42621;BME280;28252;53.336;-6.298;2023-11-19T01:08:23;99318.88;;;19.19;100.00
42621;BME280;28252;53.336;-6.298;2023-11-19T01:09:01;99311.41;;;19.21;100.00
42621;BME280;28252;53.336;-6.298;2023-11-19T01:09:37;99314.31;;;19.20;100.00
42621;BME280;28252;53.336;-6.298;2023-11-19T01:10:10;99322.41;;;19.20;100.00
42621;BME280;28252;53.336;-6.298;2023-11-19T01:10:47;99325.94;;;19.20;100.00
42621;BME280;28252;53.336;-6.298;2023-11-19T01:11:20;99318.88;;;19.19;100.00
42621;BME280;28252;53.336;-6.298;2023-11-19T01:11:54;99304.34;;;19.20;100.00
42621;BME280;28252;53.336;-6.298;2023-11-19T01:12:25;99302.69;;;19.19;100.00
42621;BME280;28252;53.336;-6.298;2023-11-19T01:13:03;99308.91;;;19.20;100.00
42621;BME280;28252;53.336;-6.298;2023-11-19T01:13:39;99309.09;;;19.18;100.00
42621;BME280;28252;53.336;-6.298;2023-11-19T01:14:13;99315.34;;;19.19;100.00
42621;BME280;28252;53.336;-6.298;2023-11-19T01:14:44;99303.91;;;19.17;100.00
42621;BME280;28252;53.336;-6.298;2023-11-19T01:15:22;99317.19;;;19.18;100.00
42621;BME280;28252;53.336;-6.298;2023-11-19T01:15:56;99307.44;;;19.17;100.00
42621;BME280;28252;53.336;-6.298;2023-11-19T01:16:28;99302.25;;;19.16;100.00
42621;BME280;28252;53.336;-6.298;2023-11-19T01:17:04;99306.78;;;19.15;100.00
42621;BME280;28252;53.336;-6.298;2023-11-19T01:17:39;99301.41;;;19.15;100.00
42621;BME280;28252;53.336;-6.298;2023-11-19T01:18:14;99303.47;;;19.13;100.00
42621;BME280;28252;53.336;-6.298;2023-11-19T01:18:51;99292.47;;;19.15;100.00
42621;BME280;28252;53.336;-6.298;2023-11-19T01:19:25;99300.56;;;19.15;100.00
42621;BME280;28252;53.336;-6.298;2023-11-19T01:19:59;99281.88;;;19.13;100.00
42621;BME280;28252;53.336;-6.298;2023-11-19T01:20:30;99299.75;;;19.14;100.00
42621;BME280;28252;53.336;-6.298;2023-11-19T01:21:01;99304.09;;;19.15;100.00
42621;BME280;28252;53.336;-6.298;2023-11-19T01:21:32;99297.03;;;19.14;100.00
42621;BME280;28252;53.336;-6.298;2023-11-19T01:22:05;99297.03;;;19.14;100.00
42621;BME280;28252;53.336;-6.298;2023-11-19T01:22:39;99294.34;;;19.14;100.00
42621;BME280;28252;53.336;-6.298;2023-11-19T01:23:12;99293.53;;;19.14;100.00
42621;BME280;28252;53.336;-6.298;2023-11-19T01:23:43;99299.94;;;19.13;100.00
42621;BME280;28252;53.336;-6.298;2023-11-19T01:24:17;99289.16;;;19.13;100.00
42621;BME280;28252;53.336;-6.298;2023-11-19T01:24:48;99289.97;;;19.13;100.00
42621;BME280;28252;53.336;-6.298;2023-11-19T01:25:25;99285.63;;;19.12;100.00
42621;BME280;28252;53.336;-6.298;2023-11-19T01:25:58;99284.75;;;19.12;100.00
42621;BME280;28252;53.336;-6.298;2023-11-19T01:26:32;99287.47;;;19.12;100.00
42621;BME280;28252;53.336;-6.298;2023-11-19T01:27:06;99287.28;;;19.13;100.00
42621;BME280;28252;53.336;-6.298;2023-11-19T01:27:39;99291.84;;;19.13;100.00
42621;BME280;28252;53.336;-6.298;2023-11-19T01:28:16;99279.38;;;19.12;100.00
42621;BME280;28252;53.336;-6.298;2023-11-19T01:28:51;99288.31;;;19.12;100.00
42621;BME280;28252;53.336;-6.298;2023-11-19T01:29:26;99288.31;;;19.12;100.00
42621;BME280;28252;53.336;-6.298;2023-11-19T01:29:57;99291.03;;;19.12;100.00
42621;BME280;28252;53.336;-6.298;2023-11-19T01:30:33;99292.03;;;19.11;100.00
42621;BME280;28252;53.336;-6.298;2023-11-19T01:31:06;99282.06;;;19.12;100.00
42621;BME280;28252;53.336;-6.298;2023-11-19T01:31:45;99279.16;;;19.13;100.00
42621;BME280;28252;53.336;-6.298;2023-11-19T01:32:22;99280.66;;;19.16;100.00
42621;BME280;28252;53.336;-6.298;2023-11-19T01:32:57;99277.09;;;19.15;100.00
42621;BME280;28252;53.336;-6.298;2023-11-19T01:33:30;99276.91;;;19.17;100.00
42621;BME280;28252;53.336;-6.298;2023-11-19T01:34:05;99284.19;;;19.16;100.00
42621;BME280;28252;53.336;-6.298;2023-11-19T01:34:38;99287.72;;;19.17;100.00
42621;BME280;28252;53.336;-6.298;2023-11-19T01:35:09;99282.50;;;19.15;100.00
42621;BME280;28252;53.336;-6.298;2023-11-19T01:35:43;99287.91;;;19.15;100.00
42621;BME280;28252;53.336;-6.298;2023-11-19T01:36:16;99281.69;;;19.15;100.00
42621;BME280;28252;53.336;-6.298;2023-11-19T01:36:50;99282.50;;;19.15;100.00
42621;BME280;28252;53.336;-6.298;2023-11-19T01:37:24;99278.97;;;19.15;100.00
42621;BME280;28252;53.336;-6.298;2023-11-19T01:38:00;99280.66;;;19.16;100.00
42621;BME280;28252;53.336;-6.298;2023-11-19T01:38:31;99284.38;;;19.15;100.00
42621;BME280;28252;53.336;-6.298;2023-11-19T01:39:05;99272.56;;;19.16;100.00
42621;BME280;28252;53.336;-6.298;2023-11-19T01:39:36;99285.84;;;19.17;100.00
42621;BME280;28252;53.336;-6.298;2023-11-19T01:40:10;99284.19;;;19.16;100.00
42621;BME280;28252;53.336;-6.298;2023-11-19T01:40:46;99283.16;;;19.17;100.00
42621;BME280;28252;53.336;-6.298;2023-11-19T01:41:21;99283.16;;;19.17;100.00
42621;BME280;28252;53.336;-6.298;2023-11-19T01:41:55;99278.59;;;19.18;100.00
42621;BME280;28252;53.336;-6.298;2023-11-19T01:42:29;99284.81;;;19.18;100.00
42621;BME280;28252;53.336;-6.298;2023-11-19T01:43:05;99282.97;;;19.19;100.00
42621;BME280;28252;53.336;-6.298;2023-11-19T01:43:39;99291.88;;;19.19;100.00
42621;BME280;28252;53.336;-6.298;2023-11-19T01:44:16;99285.66;;;19.19;100.00
42621;BME280;28252;53.336;-6.298;2023-11-19T01:45:00;99286.50;;;19.19;100.00
42621;BME280;28252;53.336;-6.298;2023-11-19T01:45:33;99285.66;;;19.19;100.00
42621;BME280;28252;53.336;-6.298;2023-11-19T01:46:05;99283.16;;;19.17;100.00
42621;BME280;28252;53.336;-6.298;2023-11-19T01:46:41;99290.22;;;19.18;100.00
42621;BME280;28252;53.336;-6.298;2023-11-19T01:47:16;99278.41;;;19.19;100.00
42621;BME280;28252;53.336;-6.298;2023-11-19T01:47:49;99279.41;;;19.18;100.00
42621;BME280;28252;53.336;-6.298;2023-11-19T01:48:22;99284.81;;;19.18;100.00
42621;BME280;28252;53.336;-6.298;2023-11-19T01:48:53;99272.38;;;19.17;100.00
42621;BME280;28252;53.336;-6.298;2023-11-19T01:49:27;99284.81;;;19.18;100.00
42621;BME280;28252;53.336;-6.298;2023-11-19T01:50:05;99283.16;;;19.17;100.00
42621;BME280;28252;53.336;-6.298;2023-11-19T01:50:41;99286.69;;;19.18;100.00
42621;BME280;28252;53.336;-6.298;2023-11-19T01:51:17;99283.16;;;19.17;100.00
42621;BME280;28252;53.336;-6.298;2023-11-19T01:51:53;99277.75;;;19.17;100.00
42621;BME280;28252;53.336;-6.298;2023-11-19T01:52:29;99281.28;;;19.18;100.00
42621;BME280;28252;53.336;-6.298;2023-11-19T01:53:03;99277.75;;;19.17;100.00
42621;BME280;28252;53.336;-6.298;2023-11-19T01:53:36;99285.84;;;19.17;100.00
42621;BME280;28252;53.336;-6.298;2023-11-19T01:54:11;99277.75;;;19.17;100.00
42621;BME280;28252;53.336;-6.298;2023-11-19T01:54:49;99285.84;;;19.17;100.00
42621;BME280;28252;53.336;-6.298;2023-11-19T01:55:25;99277.75;;;19.17;100.00
42621;BME280;28252;53.336;-6.298;2023-11-19T01:55:59;99277.75;;;19.17;100.00
42621;BME280;28252;53.336;-6.298;2023-11-19T01:56:38;99276.91;;;19.17;100.00
42621;BME280;28252;53.336;-6.298;2023-11-19T01:57:16;99276.91;;;19.17;100.00
42621;BME280;28252;53.336;-6.298;2023-11-19T01:57:53;99279.41;;;19.18;100.00
42621;BME280;28252;53.336;-6.298;2023-11-19T01:58:26;99276.91;;;19.17;100.00
42621;BME280;28252;53.336;-6.298;2023-11-19T01:59:03;99279.41;;;19.18;100.00
42621;BME280;28252;53.336;-6.298;2023-11-19T01:59:34;99272.38;;;19.17;100.00
42621;BME280;28252;53.336;-6.298;2023-11-19T02:00:10;99277.75;;;19.17;100.00
42621;BME280;28252;53.336;-6.298;2023-11-19T02:00:45;99279.59;;;19.17;100.00
42621;BME280;28252;53.336;-6.298;2023-11-19T02:01:22;99283.16;;;19.17;100.00
42621;BME280;28252;53.336;-6.298;2023-11-19T02:01:57;99276.72;;;19.18;100.00
42621;BME280;28252;53.336;-6.298;2023-11-19T02:02:33;99267.78;;;19.18;100.00
42621;BME280;28252;53.336;-6.298;2023-11-19T02:03:10;99261.56;;;19.17;100.00
42621;BME280;28252;53.336;-6.298;2023-11-19T02:03:43;99274.00;;;19.18;100.00
42621;BME280;28252;53.336;-6.298;2023-11-19T02:04:15;99274.00;;;19.18;100.00
42621;BME280;28252;53.336;-6.298;2023-11-19T02:04:50;99278.59;;;19.18;100.00
42621;BME280;28252;53.336;-6.298;2023-11-19T02:05:27;99280.47;;;19.17;100.00
42621;BME280;28252;53.336;-6.298;2023-11-19T02:06:00;99273.19;;;19.18;100.00
42621;BME280;28252;53.336;-6.298;2023-11-19T02:06:34;99270.69;;;19.16;100.00
42621;BME280;28252;53.336;-6.298;2023-11-19T02:07:14;99277.75;;;19.17;100.00
42621;BME280;28252;53.336;-6.298;2023-11-19T02:07:48;99273.38;;;19.16;100.00
42621;BME280;28252;53.336;-6.298;2023-11-19T02:08:24;99279.59;;;19.17;100.00
42621;BME280;28252;53.336;-6.298;2023-11-19T02:09:59;99271.50;;;19.17;100.00
42621;BME280;28252;53.336;-6.298;2023-11-19T02:10:38;99274.41;;;19.15;100.00
42621;BME280;28252;53.336;-6.298;2023-11-19T02:11:11;99269.00;;;19.15;100.00
42621;BME280;28252;53.336;-6.298;2023-11-19T02:11:45;99266.97;;;19.17;100.00
42621;BME280;28252;53.336;-6.298;2023-11-19T02:12:24;99265.28;;;19.16;100.00
42621;BME280;28252;53.336;-6.298;2023-11-19T02:12:57;99270.50;;;19.18;100.00
42621;BME280;28252;53.336;-6.298;2023-11-19T02:13:33;99268.00;;;19.16;100.00
42621;BME280;28252;53.336;-6.298;2023-11-19T02:14:07;99269.00;;;19.15;100.00
42621;BME280;28252;53.336;-6.298;2023-11-19T02:14:39;99269.88;;;19.16;100.00
42621;BME280;28252;53.336;-6.298;2023-11-19T02:15:15;99270.69;;;19.16;100.00
42621;BME280;28252;53.336;-6.298;2023-11-19T02:15:52;99274.41;;;19.15;100.00
42621;BME280;28252;53.336;-6.298;2023-11-19T02:16:23;99261.97;;;19.14;100.00
42621;BME280;28252;53.336;-6.298;2023-11-19T02:16:56;99275.25;;;19.16;100.00
42621;BME280;28252;53.336;-6.298;2023-11-19T02:17:33;99282.50;;;19.15;100.00
42621;BME280;28252;53.336;-6.298;2023-11-19T02:18:21;99270.06;;;19.14;100.00
42621;BME280;28252;53.336;-6.298;2023-11-19T02:18:58;99273.38;;;19.16;100.00
42621;BME280;28252;53.336;-6.298;2023-11-19T02:19:36;99270.88;;;19.15;100.00
42621;BME280;28252;53.336;-6.298;2023-11-19T02:20:11;99255.75;;;19.14;100.00
42621;BME280;28252;53.336;-6.298;2023-11-19T02:20:51;99269.22;;;19.14;100.00
42621;BME280;28252;53.336;-6.298;2023-11-19T02:21:25;99265.69;;;19.13;100.00
42621;BME280;28252;53.336;-6.298;2023-11-19T02:21:56;99269.00;;;19.15;100.00
42621;BME280;28252;53.336;-6.298;2023-11-19T02:22:27;99273.59;;;19.15;100.00
42621;BME280;28252;53.336;-6.298;2023-11-19T02:23:00;99267.34;;;19.14;100.00
42621;BME280;28252;53.336;-6.298;2023-11-19T02:23:38;99261.97;;;19.14;100.00
42621;BME280;28252;53.336;-6.298;2023-11-19T02:24:14;99267.34;;;19.14;100.00
42621;BME280;28252;53.336;-6.298;2023-11-19T02:24:52;99262.78;;;19.15;100.00
42621;BME280;28252;53.336;-6.298;2023-11-19T02:25:30;99265.47;;;19.15;100.00
42621;BME280;28252;53.336;-6.298;2023-11-19T02:26:20;99268.00;;;19.16;100.00
42621;BME280;28252;53.336;-6.298;2023-11-19T02:28:31;99273.38;;;19.16;100.00
42621;BME280;28252;53.336;-6.298;2023-11-19T02:29:05;99259.25;;;19.14;100.00
42621;BME280;28252;53.336;-6.298;2023-11-19T02:29:41;99264.47;;;19.16;100.00
42621;BME280;28252;53.336;-6.298;2023-11-19T02:31:10;99262.78;;;19.15;100.00
42621;BME280;28252;53.336;-6.298;2023-11-19T02:31:46;99266.31;;;19.15;100.00
42621;BME280;28252;53.336;-6.298;2023-11-19T02:32:20;99268.19;;;19.15;100.00
42621;BME280;28252;53.336;-6.298;2023-11-19T02:32:51;99267.34;;;19.14;100.00
42621;BME280;28252;53.336;-6.298;2023-11-19T02:33:29;99251.16;;;19.14;100.00
42621;BME280;28252;53.336;-6.298;2023-11-19T02:34:07;99255.94;;;19.12;100.00
42621;BME280;28252;53.336;-6.298;2023-11-19T02:34:41;99246.78;;;19.13;100.00
42621;BME280;28252;53.336;-6.298;2023-11-19T02:35:15;99260.28;;;19.13;100.00
42621;BME280;28252;53.336;-6.298;2023-11-19T02:35:55;99265.69;;;19.13;100.00
42621;BME280;28252;53.336;-6.298;2023-11-19T02:36:29;99256.56;;;19.14;100.00
42621;BME280;28252;53.336;-6.298;2023-11-19T02:37:08;99265.69;;;19.13;100.00
42621;BME280;28252;53.336;-6.298;2023-11-19T02:37:41;99256.94;;;19.11;100.00
42621;BME280;28252;53.336;-6.298;2023-11-19T02:38:12;99258.63;;;19.12;100.00
42621;BME280;28252;53.336;-6.298;2023-11-19T02:38:47;99264.03;;;19.12;100.00
42621;BME280;28252;53.336;-6.298;2023-11-19T02:39:20;99262.34;;;19.11;100.00
42621;BME280;28252;53.336;-6.298;2023-11-19T02:39:52;99256.94;;;19.11;100.00
42621;BME280;28252;53.336;-6.298;2023-11-19T02:40:28;99254.25;;;19.11;100.00
42621;BME280;28252;53.336;-6.298;2023-11-19T02:41:00;99254.25;;;19.11;100.00
42621;BME280;28252;53.336;-6.298;2023-11-19T02:41:37;99256.13;;;19.11;100.00
42621;BME280;28252;53.336;-6.298;2023-11-19T02:42:15;99253.25;;;19.12;100.00
42621;BME280;28252;53.336;-6.298;2023-11-19T02:42:47;99245.13;;;19.12;100.00
42621;BME280;28252;53.336;-6.298;2023-11-19T02:43:23;99246.97;;;19.12;100.00
42621;BME280;28252;53.336;-6.298;2023-11-19T02:43:58;99246.97;;;19.12;100.00
42621;BME280;28252;53.336;-6.298;2023-11-19T02:44:32;99250.72;;;19.11;100.00
42621;BME280;28252;53.336;-6.298;2023-11-19T02:45:08;99251.56;;;19.11;100.00
42621;BME280;28252;53.336;-6.298;2023-11-19T02:45:47;99251.56;;;19.11;100.00
42621;BME280;28252;53.336;-6.298;2023-11-19T02:46:18;99239.09;;;19.10;100.00
42621;BME280;28252;53.336;-6.298;2023-11-19T02:46:52;99242.84;;;19.09;100.00
42621;BME280;28252;53.336;-6.298;2023-11-19T02:47:27;99243.84;;;19.08;100.00
42621;BME280;28252;53.336;-6.298;2023-11-19T02:48:03;99244.72;;;19.09;100.00
42621;BME280;28252;53.336;-6.298;2023-11-19T02:48:37;99240.97;;;19.10;100.00
42621;BME280;28252;53.336;-6.298;2023-11-19T02:49:12;99242.00;;;19.09;100.00
42621;BME280;28252;53.336;-6.298;2023-11-19T02:49:49;99247.41;;;19.09;100.00
42621;BME280;28252;53.336;-6.298;2023-11-19T02:50:26;99238.44;;;19.08;100.00
42621;BME280;28252;53.336;-6.298;2023-11-19T02:51:00;99242.84;;;19.09;100.00
42621;BME280;28252;53.336;-6.298;2023-11-19T02:51:35;99228.72;;;19.07;100.00
42621;BME280;28252;53.336;-6.298;2023-11-19T02:52:07;99231.41;;;19.07;100.00
42621;BME280;28252;53.336;-6.298;2023-11-19T02:52:39;99234.09;;;19.07;100.00
42621;BME280;28252;53.336;-6.298;2023-11-19T02:53:11;99234.09;;;19.07;100.00
42621;BME280;28252;53.336;-6.298;2023-11-19T02:53:50;99231.41;;;19.07;100.00
42621;BME280;28252;53.336;-6.298;2023-11-19T02:54:28;99233.25;;;19.07;100.00
42621;BME280;28252;53.336;-6.298;2023-11-19T02:55:11;99232.44;;;19.06;100.00
42621;BME280;28252;53.336;-6.298;2023-11-19T02:55:46;99235.13;;;19.06;100.00
42621;BME280;28252;53.336;-6.298;2023-11-19T02:56:23;99232.44;;;19.06;100.00
42621;BME280;28252;53.336;-6.298;2023-11-19T02:57:00;99226.22;;;19.06;100.00
42621;BME280;28252;53.336;-6.298;2023-11-19T02:57:35;99227.03;;;19.06;100.00
42621;BME280;28252;53.336;-6.298;2023-11-19T02:58:12;99231.41;;;19.07;100.00
42621;BME280;28252;53.336;-6.298;2023-11-19T02:59:50;99219.13;;;19.04;100.00
42621;BME280;28252;53.336;-6.298;2023-11-19T03:00:29;99225.34;;;19.05;100.00
42621;BME280;28252;53.336;-6.298;2023-11-19T03:01:08;99234.50;;;19.04;100.00
42621;BME280;28252;53.336;-6.298;2023-11-19T03:01:54;99221.00;;;19.04;100.00
42621;BME280;28252;53.336;-6.298;2023-11-19T03:02:31;99231.59;;;19.06;100.00
42621;BME280;28252;53.336;-6.298;2023-11-19T03:03:04;99236.16;;;19.05;100.00
42621;BME280;28252;53.336;-6.298;2023-11-19T03:03:50;99221.63;;;19.06;100.00
42621;BME280;28252;53.336;-6.298;2023-11-19T03:04:25;99237.19;;;19.04;100.00
42621;BME280;28252;53.336;-6.298;2023-11-19T03:04:59;99223.72;;;19.04;100.00
42621;BME280;28252;53.336;-6.298;2023-11-19T03:05:32;99235.94;;;19.07;100.00
42621;BME280;28252;53.336;-6.298;2023-11-19T03:06:11;99225.81;;;19.09;100.00
42621;BME280;28252;53.336;-6.298;2023-11-19T03:06:46;99230.34;;;19.08;100.00
42621;BME280;28252;53.336;-6.298;2023-11-19T03:07:17;99222.47;;;19.07;100.00
42621;BME280;28252;53.336;-6.298;2023-11-19T03:07:48;99228.72;;;19.07;100.00